Time;durP1;ratioP1;P1;durP2;ratioP2;P2;SDS_P1;SDS_P2;PMS_P1;PMS_P2;Temp;Humidity;BMP_temperature;BMP_pressure;BME280_temperature;BME280_humidity;BME280_pressure;Samples;Min_cycle;Max_cycle;Signal;HPM_P1;HPM_P2
2021/01/09 00:02:05;;;;;;;17.52;10.45;;;2.40;67.90;;;;;;5084065;28;20079;-63
2021/01/09 00:04:31;;;;;;;17.92;9.80;;;2.40;66.80;;;;;;5083983;28;20037;-63
2021/01/09 00:06:57;;;;;;;18.20;10.23;;;2.30;66.80;;;;;;5066024;28;20108;-64
2021/01/09 00:09:22;;;;;;;17.25;9.82;;;2.40;66.80;;;;;;5085561;28;20032;-63
2021/01/09 00:11:48;;;;;;;17.30;9.65;;;2.40;67.50;;;;;;5083660;28;20048;-63
2021/01/09 00:14:15;;;;;;;15.20;9.15;;;2.40;66.90;;;;;;5083935;28;20036;-63
2021/01/09 00:16:45;;;;;;;16.17;9.52;;;2.40;67.60;;;;;;5082691;28;20028;-63
2021/01/09 00:19:11;;;;;;;17.35;10.20;;;2.30;67.70;;;;;;5082909;28;20088;-63
2021/01/09 00:21:37;;;;;;;17.67;9.30;;;2.30;67.80;;;;;;5085648;28;20028;-63
2021/01/09 00:24:04;;;;;;;16.63;9.68;;;2.30;68.20;;;;;;5083907;28;20043;-63
2021/01/09 00:26:30;;;;;;;16.80;9.10;;;2.40;67.90;;;;;;5082890;28;20353;-63
2021/01/09 00:28:55;;;;;;;17.85;10.02;;;2.40;66.90;;;;;;5082466;28;20044;-63
2021/01/09 00:31:21;;;;;;;16.35;9.75;;;2.40;67.60;;;;;;5083512;28;20063;-63
2021/01/09 00:33:47;;;;;;;17.10;9.52;;;2.40;67.50;;;;;;5084362;28;20024;-64
2021/01/09 00:36:13;;;;;;;15.65;9.48;;;2.30;66.70;;;;;;5083599;28;20040;-63
2021/01/09 00:38:38;;;;;;;16.90;9.55;;;2.40;67.40;;;;;;5082202;28;20269;-63
2021/01/09 00:41:04;;;;;;;16.75;9.25;;;2.40;66.90;;;;;;5083007;28;20032;-63
2021/01/09 00:43:30;;;;;;;16.85;9.15;;;2.40;67.40;;;;;;5083076;28;20082;-63
2021/01/09 00:45:55;;;;;;;17.17;9.57;;;2.30;66.70;;;;;;5083997;28;20056;-66
2021/01/09 00:48:21;;;;;;;16.23;9.02;;;2.40;67.00;;;;;;5082588;28;20028;-63
2021/01/09 00:50:46;;;;;;;17.85;9.82;;;2.40;67.50;;;;;;5083129;28;20055;-63
2021/01/09 00:53:12;;;;;;;17.00;9.48;;;2.40;67.00;;;;;;5083336;28;20033;-64
2021/01/09 00:55:37;;;;;;;17.02;9.30;;;2.30;67.30;;;;;;5081821;28;20033;-63
2021/01/09 00:58:03;;;;;;;16.98;9.60;;;2.30;67.70;;;;;;5083185;28;20084;-63
2021/01/09 01:00:29;;;;;;;15.50;9.13;;;2.40;67.50;;;;;;5084633;28;20032;-64
2021/01/09 01:02:54;;;;;;;17.48;10.25;;;2.30;67.30;;;;;;5082968;28;20232;-63
2021/01/09 01:05:20;;;;;;;17.83;9.48;;;2.30;67.50;;;;;;5082889;28;20048;-63
2021/01/09 01:07:45;;;;;;;18.45;9.90;;;2.30;67.30;;;;;;5082657;28;20048;-63
2021/01/09 01:10:12;;;;;;;14.98;8.65;;;2.20;67.30;;;;;;5083109;28;20065;-63
2021/01/09 01:12:38;;;;;;;16.25;9.27;;;2.20;67.00;;;;;;5083961;28;20130;-64
2021/01/09 01:15:04;;;;;;;15.55;9.18;;;2.20;67.30;;;;;;5082102;28;20037;-63
2021/01/09 01:17:29;;;;;;;15.90;9.30;;;2.20;67.40;;;;;;5083061;28;20043;-64
2021/01/09 01:19:55;;;;;;;16.42;9.20;;;2.20;67.80;;;;;;5081747;28;20347;-64
2021/01/09 01:22:21;;;;;;;14.82;8.90;;;2.20;67.40;;;;;;5081481;28;20028;-64
2021/01/09 01:24:46;;;;;;;17.42;9.60;;;2.00;67.20;;;;;;5084815;28;20070;-63
2021/01/09 01:27:12;;;;;;;16.80;9.98;;;2.00;67.60;;;;;;5082549;28;20107;-63
2021/01/09 01:29:37;;;;;;;16.42;9.25;;;2.00;67.80;;;;;;5081431;28;20036;-63
2021/01/09 01:32:03;;;;;;;14.40;8.90;;;2.00;68.00;;;;;;5064624;28;20033;-63
2021/01/09 01:34:28;;;;;;;17.77;9.55;;;2.00;68.00;;;;;;5082668;28;20043;-63
2021/01/09 01:36:54;;;;;;;18.20;9.95;;;2.00;68.30;;;;;;5084483;28;20078;-63
2021/01/09 01:39:19;;;;;;;15.52;9.13;;;2.00;68.40;;;;;;5082418;28;20131;-63
2021/01/09 01:41:45;;;;;;;17.58;10.38;;;2.00;68.90;;;;;;5082431;28;20037;-64
2021/01/09 01:44:11;;;;;;;15.82;9.57;;;2.00;68.60;;;;;;5081529;28;20224;-63
2021/01/09 01:46:38;;;;;;;16.92;9.45;;;2.00;68.80;;;;;;5081122;28;20040;-63
2021/01/09 01:49:04;;;;;;;18.23;9.80;;;2.10;68.50;;;;;;5081169;28;20040;-64
2021/01/09 01:51:30;;;;;;;17.38;9.75;;;2.10;68.50;;;;;;5088565;28;20029;-64
2021/01/09 01:53:56;;;;;;;16.50;9.82;;;2.10;67.80;;;;;;5088287;28;20063;-63
2021/01/09 01:56:22;;;;;;;16.17;9.95;;;2.10;68.20;;;;;;5071234;28;20037;-63
2021/01/09 01:58:47;;;;;;;17.63;9.98;;;2.10;67.90;;;;;;5088926;28;20088;-64
2021/01/09 02:01:15;;;;;;;15.80;9.27;;;2.00;68.40;;;;;;5087838;28;20028;-63
2021/01/09 02:03:40;;;;;;;18.60;9.75;;;2.00;68.10;;;;;;5090573;28;20347;-64
2021/01/09 02:06:10;;;;;;;16.90;9.57;;;2.00;68.30;;;;;;5089348;28;20037;-63
2021/01/09 02:08:56;;;;;;;16.42;9.60;;;2.00;68.50;;;;;;5071203;28;20040;-63
2021/01/09 02:11:28;;;;;;;16.75;9.45;;;2.00;68.20;;;;;;5077626;28;20104;-63
2021/01/09 02:13:57;;;;;;;17.67;9.80;;;1.90;68.20;;;;;;5087684;28;20040;-63
2021/01/09 02:16:23;;;;;;;18.13;10.35;;;1.90;69.20;;;;;;5087986;28;20143;-63
2021/01/09 02:18:48;;;;;;;16.30;9.98;;;2.00;68.50;;;;;;5089432;28;20032;-63
2021/01/09 02:21:33;;;;;;;18.63;10.20;;;1.90;68.80;;;;;;5089256;28;20036;-63
2021/01/09 02:23:58;;;;;;;18.55;9.65;;;1.90;68.80;;;;;;5089242;28;20092;-63
2021/01/09 02:26:24;;;;;;;17.98;10.10;;;1.90;68.40;;;;;;5089009;28;20044;-63
2021/01/09 02:28:49;;;;;;;17.83;10.05;;;1.90;68.20;;;;;;5054103;28;20052;-63
2021/01/09 02:31:17;;;;;;;18.00;10.25;;;1.90;68.70;;;;;;5088908;28;20048;-63
2021/01/09 02:33:42;;;;;;;18.60;10.77;;;1.90;68.50;;;;;;5073317;28;20311;-63
2021/01/09 02:36:08;;;;;;;15.43;9.13;;;1.90;69.00;;;;;;5071312;28;20062;-63
2021/01/09 02:38:36;;;;;;;18.23;10.95;;;1.90;68.60;;;;;;5070790;28;20048;-63
2021/01/09 02:41:02;;;;;;;17.63;9.73;;;1.90;68.30;;;;;;5088713;28;20063;-63
2021/01/09 02:43:27;;;;;;;17.52;9.95;;;1.90;69.10;;;;;;5070708;28;20239;-63
2021/01/09 02:45:53;;;;;;;18.00;10.05;;;1.90;68.70;;;;;;5090446;28;20047;-64
2021/01/09 02:48:19;;;;;;;17.80;10.27;;;1.90;68.80;;;;;;5088450;28;20047;-64
2021/01/09 02:50:44;;;;;;;21.48;11.82;;;1.90;68.70;;;;;;5087493;28;20078;-64
2021/01/09 02:53:10;;;;;;;19.05;10.65;;;1.90;69.00;;;;;;5088629;28;20029;-64
2021/01/09 02:55:35;;;;;;;19.45;11.13;;;1.90;68.70;;;;;;5088896;28;20032;-63
2021/01/09 02:58:01;;;;;;;19.25;10.65;;;1.90;68.80;;;;;;5088901;28;20058;-64
2021/01/09 03:00:26;;;;;;;17.50;10.45;;;1.90;68.70;;;;;;5090357;28;20267;-63
2021/01/09 03:02:52;;;;;;;19.35;10.48;;;1.90;69.00;;;;;;5085900;28;20059;-63
2021/01/09 03:05:17;;;;;;;18.08;10.27;;;1.90;69.50;;;;;;5085318;28;20323;-63
2021/01/09 03:07:43;;;;;;;19.60;11.10;;;1.90;69.10;;;;;;5084313;28;20036;-63
2021/01/09 03:10:09;;;;;;;16.95;9.98;;;1.90;69.10;;;;;;5085011;28;20036;-63
2021/01/09 03:12:34;;;;;;;19.90;10.75;;;1.90;69.10;;;;;;5069637;28;20060;-63
2021/01/09 03:15:00;;;;;;;18.08;10.45;;;1.90;69.70;;;;;;5085523;28;20048;-63
2021/01/09 03:17:25;;;;;;;17.33;10.38;;;1.80;70.10;;;;;;5083899;28;20078;-63
2021/01/09 03:19:51;;;;;;;20.08;10.90;;;1.80;69.80;;;;;;5083615;28;20073;-63
2021/01/09 03:22:17;;;;;;;17.60;10.27;;;1.80;70.10;;;;;;5084874;28;20032;-63
2021/01/09 03:24:42;;;;;;;19.20;10.30;;;1.80;70.40;;;;;;5085460;28;20024;-63
2021/01/09 03:27:08;;;;;;;18.42;10.75;;;1.80;70.50;;;;;;5085264;28;20370;-63
2021/01/09 03:29:33;;;;;;;16.70;10.38;;;1.70;70.20;;;;;;5084843;28;20036;-63
2021/01/09 03:31:59;;;;;;;19.90;11.20;;;1.70;70.20;;;;;;5084634;28;20032;-64
2021/01/09 03:34:24;;;;;;;18.13;10.25;;;1.80;70.20;;;;;;5084826;28;20040;-64
2021/01/09 03:36:50;;;;;;;19.45;10.98;;;1.80;70.80;;;;;;5086242;28;20048;-63
2021/01/09 03:39:15;;;;;;;19.15;10.80;;;1.70;70.40;;;;;;5083738;28;20044;-63
2021/01/09 03:41:41;;;;;;;21.05;10.90;;;1.80;70.20;;;;;;5084481;28;20099;-63
2021/01/09 03:44:06;;;;;;;17.92;10.38;;;1.70;70.60;;;;;;5084476;28;20049;-63
2021/01/09 03:46:32;;;;;;;19.95;11.57;;;1.70;70.40;;;;;;5084398;28;20024;-64
2021/01/09 03:48:57;;;;;;;18.13;10.82;;;1.80;70.30;;;;;;5066301;28;20032;-63
2021/01/09 03:51:23;;;;;;;18.67;10.80;;;1.70;70.20;;;;;;5085197;28;20029;-63
2021/01/09 03:53:48;;;;;;;20.75;11.30;;;1.70;70.40;;;;;;5084497;28;20041;-63
2021/01/09 03:56:14;;;;;;;19.58;10.77;;;1.70;70.20;;;;;;5084266;28;20037;-63
2021/01/09 03:58:41;;;;;;;21.30;11.90;;;1.70;70.20;;;;;;5083224;28;20148;-63
2021/01/09 04:01:07;;;;;;;19.48;10.80;;;1.70;70.50;;;;;;5084435;28;20092;-64
2021/01/09 04:03:32;;;;;;;18.52;10.70;;;1.70;70.50;;;;;;5085789;28;20039;-63
2021/01/09 04:05:58;;;;;;;21.88;11.82;;;1.70;70.70;;;;;;5083120;28;20037;-63
2021/01/09 04:08:23;;;;;;;19.17;11.30;;;1.60;70.80;;;;;;5083158;28;20044;-63
2021/01/09 04:10:49;;;;;;;16.60;10.38;;;1.60;70.60;;;;;;5083973;28;20369;-63
2021/01/09 04:13:14;;;;;;;19.02;10.50;;;1.70;70.90;;;;;;5082969;28;20028;-63
2021/01/09 04:15:40;;;;;;;21.38;11.32;;;1.70;70.60;;;;;;5084498;28;20371;-63
2021/01/09 04:18:06;;;;;;;19.13;11.15;;;1.60;70.60;;;;;;5084348;28;20040;-63
2021/01/09 04:20:32;;;;;;;22.33;10.98;;;1.60;70.70;;;;;;5083753;28;20040;-63
2021/01/09 04:22:57;;;;;;;20.00;11.02;;;1.60;70.60;;;;;;5082488;28;20056;-63
2021/01/09 04:25:23;;;;;;;20.65;11.20;;;1.60;71.10;;;;;;5084106;28;20032;-63
2021/01/09 04:27:48;;;;;;;21.73;11.77;;;1.60;71.00;;;;;;5085483;28;20064;-63
2021/01/09 04:30:14;;;;;;;20.30;11.55;;;1.50;71.10;;;;;;5082683;28;20036;-64
2021/01/09 04:32:40;;;;;;;21.05;11.65;;;1.50;71.20;;;;;;5065591;28;20099;-64
2021/01/09 04:35:06;;;;;;;20.90;12.15;;;1.50;71.20;;;;;;5065816;28;20036;-63
2021/01/09 04:37:36;;;;;;;20.17;11.27;;;1.60;71.20;;;;;;5082146;28;20039;-63
2021/01/09 04:40:05;;;;;;;21.58;12.27;;;1.50;71.40;;;;;;5083638;28;20051;-64
2021/01/09 04:42:30;;;;;;;20.13;11.73;;;1.50;71.40;;;;;;5084241;28;20247;-63
2021/01/09 04:44:56;;;;;;;24.00;12.38;;;1.50;71.40;;;;;;5065828;28;20044;-64
2021/01/09 04:47:21;;;;;;;21.88;12.23;;;1.50;71.50;;;;;;5065647;28;20208;-63
2021/01/09 04:49:47;;;;;;;21.67;11.70;;;1.50;71.30;;;;;;5065463;28;20078;-63
2021/01/09 04:52:12;;;;;;;21.27;12.50;;;1.50;71.60;;;;;;5082155;28;20296;-63
2021/01/09 04:54:38;;;;;;;20.58;11.52;;;1.40;71.50;;;;;;5067372;28;20031;-63
2021/01/09 04:57:04;;;;;;;21.27;11.60;;;1.50;71.70;;;;;;5065760;28;20319;-63
2021/01/09 04:59:29;;;;;;;21.80;11.75;;;1.40;71.40;;;;;;5081993;28;20087;-63
2021/01/09 05:01:56;;;;;;;22.17;12.10;;;1.40;71.40;;;;;;5081859;28;20102;-63
2021/01/09 05:04:22;;;;;;;22.23;12.35;;;1.40;71.70;;;;;;5081770;28;20025;-63
2021/01/09 05:06:48;;;;;;;21.75;12.15;;;1.40;71.60;;;;;;5084998;28;20043;-64
2021/01/09 05:09:14;;;;;;;23.25;12.07;;;1.40;71.70;;;;;;5083331;28;20246;-63
2021/01/09 05:11:40;;;;;;;23.38;12.93;;;1.40;71.90;;;;;;5065023;28;20224;-63
2021/01/09 05:14:06;;;;;;;23.77;12.27;;;1.40;71.80;;;;;;5081443;28;20201;-63
2021/01/09 05:16:33;;;;;;;24.27;12.85;;;1.40;71.70;;;;;;5081648;28;20068;-63
2021/01/09 05:18:59;;;;;;;21.63;11.68;;;1.40;71.90;;;;;;5081567;28;20040;-63
2021/01/09 05:21:26;;;;;;;21.95;11.93;;;1.40;71.70;;;;;;5066643;28;20028;-64
2021/01/09 05:23:58;;;;;;;22.38;11.55;;;1.40;71.30;;;;;;5065515;28;20043;-65
2021/01/09 05:26:24;;;;;;;22.05;12.55;;;1.40;71.10;;;;;;5081348;28;20087;-65
2021/01/09 05:28:53;;;;;;;21.05;12.15;;;1.30;71.30;;;;;;5082632;28;20044;-65
2021/01/09 05:31:19;;;;;;;24.33;12.73;;;1.30;71.50;;;;;;5082446;28;20028;-65
2021/01/09 05:33:45;;;;;;;22.48;12.68;;;1.30;71.40;;;;;;5084496;28;20039;-64
2021/01/09 05:36:10;;;;;;;21.13;12.60;;;1.20;71.40;;;;;;5081646;28;20059;-64
2021/01/09 05:38:36;;;;;;;21.92;12.25;;;1.30;71.60;;;;;;5064990;28;20228;-65
2021/01/09 05:41:07;;;;;;;24.90;12.10;;;1.20;71.80;;;;;;5064900;28;20032;-64
2021/01/09 05:43:32;;;;;;;23.92;12.85;;;1.20;71.70;;;;;;5081166;28;20107;-64
2021/01/09 05:45:59;;;;;;;22.83;12.32;;;1.20;71.80;;;;;;5081254;28;20036;-65
2021/01/09 05:48:26;;;;;;;23.35;12.30;;;1.30;71.50;;;;;;5066876;28;20036;-64
2021/01/09 05:50:52;;;;;;;22.80;12.75;;;1.20;71.40;;;;;;5081484;28;20092;-65
2021/01/09 05:53:41;;;;;;;21.98;11.98;;;1.20;71.50;;;;;;5064744;28;20037;-64
2021/01/09 05:56:07;;;;;;;25.55;12.68;;;1.20;71.20;;;;;;5082281;28;20319;-65
2021/01/09 05:58:34;;;;;;;26.05;12.35;;;1.10;71.10;;;;;;5064692;28;20033;-64
2021/01/09 06:01:02;;;;;;;22.98;11.93;;;1.00;70.90;;;;;;5064849;28;20113;-65
2021/01/09 06:03:37;;;;;;;24.98;12.48;;;1.00;71.00;;;;;;5066608;28;20020;-65
2021/01/09 06:06:05;;;;;;;23.30;12.20;;;0.90;71.00;;;;;;5081362;28;20381;-65
2021/01/09 06:08:31;;;;;;;22.02;12.23;;;1.00;71.10;;;;;;5064656;28;20052;-65
2021/01/09 06:10:59;;;;;;;25.33;12.93;;;1.00;71.00;;;;;;5064471;28;20041;-64
2021/01/09 06:13:26;;;;;;;23.58;12.77;;;0.90;71.00;;;;;;5064527;28;20037;-64
2021/01/09 06:15:51;;;;;;;23.05;12.10;;;0.90;70.90;;;;;;5066242;28;20036;-64
2021/01/09 06:18:17;;;;;;;22.67;12.65;;;0.90;71.00;;;;;;5064319;28;20033;-65
2021/01/09 06:20:45;;;;;;;23.67;11.90;;;0.90;71.20;;;;;;5064546;28;20109;-65
2021/01/09 06:23:10;;;;;;;20.63;11.65;;;0.80;70.90;;;;;;5064916;28;20036;-64
2021/01/09 06:25:36;;;;;;;23.60;12.82;;;0.80;71.00;;;;;;5080934;28;20265;-64
2021/01/09 06:28:05;;;;;;;22.98;12.55;;;0.70;70.80;;;;;;5081315;28;20082;-65
2021/01/09 06:30:34;;;;;;;23.45;11.85;;;0.70;71.00;;;;;;5049671;28;20087;-65
2021/01/09 06:33:01;;;;;;;23.55;12.40;;;0.70;71.00;;;;;;5081334;28;20068;-65
2021/01/09 06:35:27;;;;;;;22.05;12.10;;;0.60;70.60;;;;;;5081218;28;20029;-64
2021/01/09 06:37:54;;;;;;;22.85;12.27;;;0.60;71.00;;;;;;5082172;28;20037;-65
2021/01/09 06:40:20;;;;;;;28.15;12.38;;;0.60;70.70;;;;;;5085699;28;20035;-65
2021/01/09 06:42:46;;;;;;;27.95;12.65;;;0.60;70.60;;;;;;5069595;28;20060;-65
2021/01/09 06:45:12;;;;;;;29.23;12.38;;;0.50;70.80;;;;;;5051610;28;20099;-64
2021/01/09 06:47:37;;;;;;;38.13;12.98;;;0.60;70.80;;;;;;5067625;28;20036;-64
2021/01/09 06:50:18;;;;;;;30.23;12.23;;;0.50;71.00;;;;;;5085652;28;20037;-65
2021/01/09 06:52:53;;;;;;;26.00;12.35;;;0.40;71.40;;;;;;5085621;28;20395;-65
2021/01/09 06:55:36;;;;;;;31.05;12.75;;;0.50;71.80;;;;;;5084452;28;20024;-64
2021/01/09 06:58:05;;;;;;;22.17;12.38;;;0.40;71.60;;;;;;5085319;28;20263;-66
2021/01/09 07:00:31;;;;;;;20.48;11.68;;;0.40;71.60;;;;;;5085896;28;20084;-65
2021/01/09 07:03:13;;;;;;;20.20;11.75;;;0.40;71.90;;;;;;5084577;28;20100;-65
2021/01/09 07:05:51;;;;;;;24.02;12.00;;;0.50;72.20;;;;;;5084085;28;20243;-66
2021/01/09 07:08:35;;;;;;;40.05;13.32;;;0.50;72.30;;;;;;5085113;28;20041;-65
2021/01/09 07:11:05;;;;;;;56.00;13.85;;;0.50;72.50;;;;;;5067331;28;20044;-65
2021/01/09 07:13:31;;;;;;;61.88;13.98;;;0.50;72.40;;;;;;5083903;28;20040;-65
2021/01/09 07:16:07;;;;;;;56.70;13.25;;;0.50;72.40;;;;;;5084809;28;20036;-66
2021/01/09 07:18:34;;;;;;;57.50;12.60;;;0.50;72.60;;;;;;5085559;28;20020;-64
2021/01/09 07:20:59;;;;;;;33.60;13.45;;;0.50;72.70;;;;;;5067475;28;20060;-65
2021/01/09 07:23:25;;;;;;;44.78;13.30;;;0.50;72.70;;;;;;5067495;28;20036;-65
2021/01/09 07:25:50;;;;;;;35.85;12.13;;;0.60;73.20;;;;;;5050516;28;20033;-65
2021/01/09 07:28:17;;;;;;;27.75;12.35;;;0.60;73.00;;;;;;5067276;28;20095;-65
2021/01/09 07:30:43;;;;;;;20.83;11.13;;;0.60;72.60;;;;;;5085384;28;20028;-64
2021/01/09 07:33:13;;;;;;;20.48;11.13;;;0.70;72.30;;;;;;5083873;28;20040;-65
2021/01/09 07:35:41;;;;;;;20.40;10.88;;;0.60;72.50;;;;;;5083779;28;20052;-65
2021/01/09 07:38:07;;;;;;;22.92;11.43;;;0.70;72.20;;;;;;5083447;28;20040;-64
2021/01/09 07:40:33;;;;;;;26.80;10.95;;;0.80;72.20;;;;;;5083423;28;20347;-64
2021/01/09 07:42:59;;;;;;;21.70;11.48;;;0.90;72.10;;;;;;5083188;28;20032;-65
2021/01/09 07:45:31;;;;;;;20.80;10.48;;;1.00;71.70;;;;;;5085384;28;20126;-66
2021/01/09 07:47:56;;;;;;;23.48;11.20;;;1.00;70.80;;;;;;5083570;28;20229;-63
2021/01/09 07:50:22;;;;;;;21.23;11.50;;;1.00;71.10;;;;;;5083103;28;20035;-64
2021/01/09 07:52:47;;;;;;;19.38;10.90;;;1.00;71.40;;;;;;5084460;28;20039;-65
2021/01/09 07:55:17;;;;;;;21.58;11.05;;;1.00;70.90;;;;;;5083372;28;20275;-64
2021/01/09 07:57:43;;;;;;;24.13;11.32;;;1.10;70.60;;;;;;5086166;28;20028;-65
2021/01/09 08:00:13;;;;;;;22.27;9.93;;;1.10;70.40;;;;;;5067027;28;20099;-65
2021/01/09 08:02:39;;;;;;;20.17;10.77;;;1.10;70.60;;;;;;5067101;28;20096;-65
2021/01/09 08:05:16;;;;;;;19.50;10.88;;;1.20;70.20;;;;;;5066338;28;20040;-65
2021/01/09 08:07:55;;;;;;;24.80;10.50;;;1.20;70.00;;;;;;5067352;28;20074;-63
2021/01/09 08:10:25;;;;;;;18.42;10.25;;;1.20;69.80;;;;;;5084314;28;20036;-63
2021/01/09 08:13:00;;;;;;;22.20;10.88;;;1.30;69.60;;;;;;5085883;28;20043;-63
2021/01/09 08:15:27;;;;;;;16.48;9.30;;;1.30;69.30;;;;;;5084854;28;20070;-63
2021/01/09 08:17:53;;;;;;;16.00;8.75;;;1.20;68.60;;;;;;5083107;28;20224;-62
2021/01/09 08:20:18;;;;;;;17.35;9.45;;;1.30;68.50;;;;;;5084102;28;20032;-62
2021/01/09 08:23:00;;;;;;;16.23;8.65;;;1.30;67.20;;;;;;5083782;28;20033;-64
2021/01/09 08:25:27;;;;;;;16.70;8.93;;;1.30;68.10;;;;;;5082821;28;20032;-63
2021/01/09 08:28:00;;;;;;;17.27;8.48;;;1.40;68.50;;;;;;5085219;28;20028;-63
2021/01/09 08:30:27;;;;;;;14.57;8.15;;;1.30;67.40;;;;;;5083453;28;20033;-63
2021/01/09 08:33:12;;;;;;;15.57;8.52;;;1.40;67.10;;;;;;5082657;28;20327;-63
2021/01/09 08:35:46;;;;;;;13.40;8.02;;;1.40;66.60;;;;;;5083596;28;20029;-63
2021/01/09 08:38:11;;;;;;;14.38;8.38;;;1.60;66.40;;;;;;5083840;28;20033;-64
2021/01/09 08:40:37;;;;;;;14.27;8.20;;;1.70;65.30;;;;;;5065631;28;20040;-63
2021/01/09 08:43:04;;;;;;;17.42;8.40;;;1.80;65.50;;;;;;5065713;28;20025;-63
2021/01/09 08:45:45;;;;;;;14.43;8.75;;;1.90;65.00;;;;;;5083829;28;20070;-59
2021/01/09 08:48:18;;;;;;;15.68;8.40;;;1.90;65.50;;;;;;5082449;28;20344;-58
2021/01/09 08:50:58;;;;;;;14.90;8.10;;;2.20;64.90;;;;;;5082174;28;20228;-59
2021/01/09 08:53:30;;;;;;;16.00;8.07;;;2.30;64.50;;;;;;5083296;28;20032;-59
2021/01/09 08:56:00;;;;;;;14.40;8.10;;;2.20;63.30;;;;;;5083428;28;20337;-60
2021/01/09 08:58:27;;;;;;;15.55;8.00;;;2.20;63.40;;;;;;5081909;28;20347;-59
2021/01/09 09:00:53;;;;;;;12.73;7.43;;;2.40;63.90;;;;;;5067095;28;20062;-59
2021/01/09 09:03:19;;;;;;;13.32;7.40;;;2.50;62.60;;;;;;5081859;28;20048;-58
2021/01/09 09:05:45;;;;;;;14.40;8.13;;;2.50;62.50;;;;;;5082334;28;20216;-60
2021/01/09 09:08:12;;;;;;;14.15;7.45;;;2.60;62.20;;;;;;5081670;28;20048;-60
2021/01/09 09:10:39;;;;;;;12.13;7.05;;;2.70;62.80;;;;;;5065668;28;20269;-61
2021/01/09 09:13:17;;;;;;;13.98;7.75;;;2.90;61.80;;;;;;5081653;28;20068;-62
2021/01/09 09:15:43;;;;;;;12.75;7.13;;;3.30;61.50;;;;;;5083562;28;20032;-62
2021/01/09 09:18:09;;;;;;;11.25;6.97;;;3.60;60.30;;;;;;5083308;28;20220;-62
2021/01/09 09:20:35;;;;;;;10.88;6.80;;;3.90;59.10;;;;;;5082923;28;20032;-62
2021/01/09 09:23:23;;;;;;;11.82;6.60;;;3.90;57.70;;;;;;5081868;28;20258;-59
2021/01/09 09:26:12;;;;;;;13.00;7.28;;;3.90;57.10;;;;;;5083024;28;20033;-61
2021/01/09 09:28:45;;;;;;;13.27;8.00;;;3.90;57.60;;;;;;5082568;28;20346;-61
2021/01/09 09:31:18;;;;;;;24.42;11.60;;;3.70;58.50;;;;;;5082483;28;20036;-64
2021/01/09 09:33:55;;;;;;;15.25;7.82;;;3.50;57.70;;;;;;5084156;28;20029;-63
2021/01/09 09:36:20;;;;;;;13.00;8.13;;;3.20;58.70;;;;;;5082716;28;20040;-64
2021/01/09 09:38:46;;;;;;;15.13;7.93;;;3.20;59.20;;;;;;5082553;28;20039;-65
2021/01/09 09:41:11;;;;;;;17.00;8.73;;;3.20;59.60;;;;;;5082473;28;20099;-62
2021/01/09 09:43:37;;;;;;;14.40;8.43;;;3.40;59.70;;;;;;5082297;28;20048;-61
2021/01/09 09:46:04;;;;;;;15.13;8.43;;;3.90;58.70;;;;;;5083072;28;20055;-62
2021/01/09 09:48:37;;;;;;;13.38;8.27;;;4.70;57.80;;;;;;5083061;28;20034;-62
2021/01/09 09:51:06;;;;;;;16.08;9.07;;;4.90;55.30;;;;;;5081378;28;20037;-62
2021/01/09 09:53:39;;;;;;;13.52;8.13;;;5.00;55.70;;;;;;5081426;28;20032;-62
2021/01/09 09:56:14;;;;;;;15.07;9.27;;;5.20;55.10;;;;;;5082444;28;20070;-62
2021/01/09 09:58:40;;;;;;;15.68;9.00;;;5.00;55.20;;;;;;5081094;28;20224;-62
2021/01/09 10:01:20;;;;;;;16.23;9.48;;;4.80;56.20;;;;;;5082347;28;20083;-63
2021/01/09 10:03:46;;;;;;;16.17;9.65;;;4.70;56.60;;;;;;5066551;28;20058;-62
2021/01/09 10:06:11;;;;;;;16.70;10.05;;;4.60;57.30;;;;;;5031808;28;20032;-62
2021/01/09 10:08:37;;;;;;;18.48;10.45;;;4.60;57.90;;;;;;5082468;28;20036;-63
2021/01/09 10:11:03;;;;;;;18.48;10.73;;;4.40;57.80;;;;;;5081516;28;20255;-62
2021/01/09 10:13:29;;;;;;;23.35;11.38;;;4.40;58.40;;;;;;5084959;28;20043;-62
2021/01/09 10:15:58;;;;;;;21.73;11.40;;;4.40;59.30;;;;;;5087780;28;20040;-62
2021/01/09 10:18:24;;;;;;;18.60;11.48;;;4.60;59.00;;;;;;5085403;28;20074;-62
2021/01/09 10:20:50;;;;;;;20.15;12.07;;;4.70;59.10;;;;;;5086264;28;20029;-62
2021/01/09 10:23:15;;;;;;;20.55;11.88;;;4.80;57.20;;;;;;5085934;28;20371;-62
2021/01/09 10:25:41;;;;;;;20.17;12.05;;;4.80;56.90;;;;;;5085777;28;20029;-63
2021/01/09 10:28:07;;;;;;;18.38;11.40;;;4.70;57.80;;;;;;5085664;28;20028;-62
2021/01/09 10:30:32;;;;;;;18.52;11.35;;;4.80;57.00;;;;;;5087762;28;20315;-62
2021/01/09 10:32:58;;;;;;;19.63;11.60;;;4.90;56.00;;;;;;5086094;28;20292;-62
2021/01/09 10:35:23;;;;;;;16.38;10.93;;;5.10;56.60;;;;;;5085682;28;20036;-62
2021/01/09 10:37:49;;;;;;;21.60;11.55;;;5.10;55.60;;;;;;5084521;28;20040;-62
2021/01/09 10:40:15;;;;;;;21.08;12.43;;;5.40;56.60;;;;;;5084679;28;20070;-63
2021/01/09 10:42:40;;;;;;;20.33;12.65;;;5.60;55.90;;;;;;5069835;28;20028;-62
2021/01/09 10:45:06;;;;;;;20.48;12.00;;;5.70;55.20;;;;;;5084455;28;20224;-62
2021/01/09 10:47:32;;;;;;;15.95;10.93;;;5.90;55.20;;;;;;5085288;28;20079;-63
2021/01/09 10:49:57;;;;;;;18.77;10.32;;;6.00;54.80;;;;;;5084490;28;20024;-62
2021/01/09 10:52:23;;;;;;;19.05;11.57;;;6.00;53.50;;;;;;5084319;28;20028;-62
2021/01/09 10:54:49;;;;;;;18.40;10.73;;;6.20;52.90;;;;;;5087302;28;20033;-63
2021/01/09 10:57:15;;;;;;;17.65;11.18;;;6.30;53.80;;;;;;5085776;28;20096;-63
2021/01/09 10:59:40;;;;;;;14.88;10.23;;;6.40;52.50;;;;;;5085156;28;20251;-70
2021/01/09 11:02:07;;;;;;;16.00;10.70;;;6.50;52.30;;;;;;5085130;28;20039;-68
2021/01/09 11:04:32;;;;;;;15.45;9.73;;;6.90;51.50;;;;;;5085193;28;20060;-63
2021/01/09 11:06:58;;;;;;;13.95;9.18;;;7.00;49.20;;;;;;5085321;28;20033;-63
2021/01/09 11:09:24;;;;;;;14.48;8.52;;;7.20;48.30;;;;;;5069249;28;20027;-63
2021/01/09 11:11:50;;;;;;;11.70;6.88;;;7.30;47.40;;;;;;5067485;28;20032;-63
2021/01/09 11:14:15;;;;;;;12.05;7.90;;;7.50;45.80;;;;;;5085343;28;20078;-62
2021/01/09 11:16:41;;;;;;;6.68;4.43;;;7.90;44.60;;;;;;5085162;28;20305;-62
2021/01/09 11:19:06;;;;;;;8.52;5.28;;;7.90;43.40;;;;;;5083966;28;20037;-62
2021/01/09 11:21:32;;;;;;;8.52;5.75;;;7.90;43.60;;;;;;5086677;28;20032;-62
2021/01/09 11:23:58;;;;;;;10.32;6.72;;;8.30;42.00;;;;;;5083728;28;20063;-63
2021/01/09 11:26:24;;;;;;;10.50;6.15;;;8.50;42.80;;;;;;5085072;28;20043;-64
2021/01/09 11:28:51;;;;;;;10.50;6.85;;;8.70;41.50;;;;;;5084779;28;20044;-63
2021/01/09 11:31:16;;;;;;;10.98;7.50;;;8.40;41.70;;;;;;5084728;28;20044;-62
2021/01/09 11:33:42;;;;;;;8.43;6.05;;;8.20;43.00;;;;;;5085233;28;20313;-62
2021/01/09 11:36:11;;;;;;;7.85;5.78;;;7.90;42.40;;;;;;5085328;28;20040;-62
2021/01/09 11:38:36;;;;;;;9.32;6.40;;;8.10;43.80;;;;;;5084961;28;20028;-63
2021/01/09 11:41:02;;;;;;;11.27;7.47;;;8.00;43.10;;;;;;5083497;28;20078;-63
2021/01/09 11:43:29;;;;;;;11.18;7.25;;;7.90;43.40;;;;;;5084323;28;20036;-63
2021/01/09 11:45:55;;;;;;;11.88;7.15;;;7.60;43.70;;;;;;5086370;28;20074;-62
2021/01/09 11:48:21;;;;;;;11.05;7.63;;;7.40;44.30;;;;;;5083552;28;20044;-63
2021/01/09 11:50:46;;;;;;;13.10;8.52;;;7.10;45.90;;;;;;5084813;28;20312;-63
2021/01/09 11:53:12;;;;;;;14.07;9.00;;;6.90;45.80;;;;;;5084462;28;20219;-63
2021/01/09 11:55:37;;;;;;;13.38;9.02;;;6.70;46.10;;;;;;5084400;28;20044;-64
2021/01/09 11:58:03;;;;;;;12.65;8.55;;;6.80;46.60;;;;;;5084399;28;20036;-64
2021/01/09 12:00:29;;;;;;;12.98;8.25;;;6.30;46.60;;;;;;5086127;28;20240;-63
2021/01/09 12:02:54;;;;;;;12.68;8.40;;;6.60;47.10;;;;;;5084571;28;20389;-64
2021/01/09 12:05:20;;;;;;;13.32;8.32;;;6.70;45.90;;;;;;5084023;28;20078;-63
2021/01/09 12:07:45;;;;;;;11.98;7.78;;;6.90;45.40;;;;;;5084037;28;20099;-63
2021/01/09 12:10:11;;;;;;;11.18;7.40;;;7.00;46.50;;;;;;5083901;28;20036;-63
2021/01/09 12:12:36;;;;;;;11.40;8.18;;;7.00;45.40;;;;;;5084678;28;20032;-63
2021/01/09 12:15:06;;;;;;;13.27;8.52;;;7.40;45.00;;;;;;5083177;28;20103;-63
2021/01/09 12:17:33;;;;;;;14.07;8.95;;;7.20;45.20;;;;;;5083671;28;20044;-62
2021/01/09 12:19:59;;;;;;;14.38;8.90;;;7.20;45.80;;;;;;5049505;28;20122;-63
2021/01/09 12:22:25;;;;;;;13.68;8.90;;;7.20;47.00;;;;;;5082507;28;20197;-63
2021/01/09 12:24:51;;;;;;;14.55;8.93;;;6.90;46.10;;;;;;5067517;28;20032;-63
2021/01/09 12:27:16;;;;;;;12.90;8.30;;;7.20;45.60;;;;;;5083751;28;20070;-63
2021/01/09 12:29:43;;;;;;;14.75;8.98;;;7.30;45.90;;;;;;5083973;28;20364;-61
2021/01/09 12:32:09;;;;;;;13.32;9.35;;;7.20;45.70;;;;;;5083669;28;20036;-59
2021/01/09 12:34:34;;;;;;;14.50;9.55;;;7.30;46.70;;;;;;5083578;28;20074;-59
2021/01/09 12:37:00;;;;;;;16.08;9.88;;;7.20;46.50;;;;;;5083357;28;20048;-60
2021/01/09 12:39:25;;;;;;;14.68;9.85;;;7.20;46.60;;;;;;5086077;28;20023;-70
2021/01/09 12:41:51;;;;;;;15.77;10.35;;;7.30;47.90;;;;;;5083493;28;20036;-67